sensor_id;sensor_type;location;lat;lon;timestamp;pressure;altitude;pressure_sealevel;temperature;humidity
64614;BME280;51025;37.772;-122.432;2023-06-05T00:00:15;100431.59;;;22.15;27.01
64614;BME280;51025;37.772;-122.432;2023-06-05T00:02:43;100428.91;;;22.91;26.47
64614;BME280;51025;37.772;-122.432;2023-06-05T00:05:12;100423.39;;;22.51;26.79
64614;BME280;51025;37.772;-122.432;2023-06-05T00:07:40;100419.58;;;23.04;26.48
64614;BME280;51025;37.772;-122.432;2023-06-05T00:10:09;100412.35;;;22.92;26.60
64614;BME280;51025;37.772;-122.432;2023-06-05T00:12:38;100412.13;;;22.96;26.67
64614;BME280;51025;37.772;-122.432;2023-06-05T00:15:08;100414.50;;;22.85;26.66
64614;BME280;51025;37.772;-122.432;2023-06-05T00:17:36;100409.43;;;23.05;26.58
64614;BME280;51025;37.772;-122.432;2023-06-05T00:20:06;100415.00;;;22.90;26.78
64614;BME280;51025;37.772;-122.432;2023-06-05T00:22:35;100409.97;;;23.02;26.76
64614;BME280;51025;37.772;-122.432;2023-06-05T00:25:05;100405.39;;;23.24;26.86
64614;BME280;51025;37.772;-122.432;2023-06-05T00:27:33;100410.89;;;23.06;26.76
64614;BME280;51025;37.772;-122.432;2023-06-05T00:30:01;100410.46;;;23.07;26.76
64614;BME280;51025;37.772;-122.432;2023-06-05T00:32:29;100402.81;;;23.18;26.66
64614;BME280;51025;37.772;-122.432;2023-06-05T00:34:57;100407.19;;;23.51;26.71
64614;BME280;51025;37.772;-122.432;2023-06-05T00:37:25;100403.62;;;23.23;26.72
64614;BME280;51025;37.772;-122.432;2023-06-05T00:39:54;100392.81;;;23.68;26.60
64614;BME280;51025;37.772;-122.432;2023-06-05T00:42:22;100387.81;;;22.71;26.82
64614;BME280;51025;37.772;-122.432;2023-06-05T00:44:50;100391.23;;;23.22;26.80
64614;BME280;51025;37.772;-122.432;2023-06-05T00:47:18;100390.07;;;23.25;26.76
64614;BME280;51025;37.772;-122.432;2023-06-05T00:49:46;100394.61;;;23.37;26.70
64614;BME280;51025;37.772;-122.432;2023-06-05T00:52:15;100396.13;;;23.68;26.74
64614;BME280;51025;37.772;-122.432;2023-06-05T00:54:44;100390.85;;;23.45;26.62
64614;BME280;51025;37.772;-122.432;2023-06-05T00:57:13;100395.76;;;23.61;26.72
64614;BME280;51025;37.772;-122.432;2023-06-05T00:59:41;100387.89;;;23.04;26.58
64614;BME280;51025;37.772;-122.432;2023-06-05T01:02:10;100383.31;;;23.58;26.33
64614;BME280;51025;37.772;-122.432;2023-06-05T01:04:39;100380.26;;;22.99;26.37
64614;BME280;51025;37.772;-122.432;2023-06-05T01:07:08;100382.65;;;22.92;26.53
64614;BME280;51025;37.772;-122.432;2023-06-05T01:09:36;100384.07;;;22.98;26.28
64614;BME280;51025;37.772;-122.432;2023-06-05T01:12:11;100384.44;;;22.74;26.39
64614;BME280;51025;37.772;-122.432;2023-06-05T01:14:45;100383.84;;;22.12;26.51
64614;BME280;51025;37.772;-122.432;2023-06-05T01:17:17;100377.97;;;22.39;26.26
64614;BME280;51025;37.772;-122.432;2023-06-05T01:19:46;100385.88;;;22.21;25.99
64614;BME280;51025;37.772;-122.432;2023-06-05T01:22:15;100382.24;;;22.32;26.08
64614;BME280;51025;37.772;-122.432;2023-06-05T01:27:29;100380.20;;;21.06;25.87
64614;BME280;51025;37.772;-122.432;2023-06-05T01:30:05;100381.06;;;22.06;25.70
64614;BME280;51025;37.772;-122.432;2023-06-05T01:32:40;100383.65;;;21.69;26.05
64614;BME280;51025;37.772;-122.432;2023-06-05T01:35:10;100378.82;;;22.55;25.95
64614;BME280;51025;37.772;-122.432;2023-06-05T01:37:41;100377.65;;;22.28;26.13
64614;BME280;51025;37.772;-122.432;2023-06-05T01:40:12;100381.80;;;22.55;26.26
64614;BME280;51025;37.772;-122.432;2023-06-05T01:42:43;100378.41;;;22.27;26.11
64614;BME280;51025;37.772;-122.432;2023-06-05T01:45:12;100375.53;;;21.86;26.41
64614;BME280;51025;37.772;-122.432;2023-06-05T01:47:41;100374.00;;;21.81;26.12
64614;BME280;51025;37.772;-122.432;2023-06-05T01:50:10;100386.63;;;22.51;26.16
64614;BME280;51025;37.772;-122.432;2023-06-05T01:52:38;100385.79;;;22.05;26.17
64614;BME280;51025;37.772;-122.432;2023-06-05T01:55:07;100390.20;;;21.98;26.26
64614;BME280;51025;37.772;-122.432;2023-06-05T01:57:36;100391.80;;;22.50;25.78
64614;BME280;51025;37.772;-122.432;2023-06-05T02:00:05;100390.85;;;22.53;26.07
64614;BME280;51025;37.772;-122.432;2023-06-05T02:02:34;100389.85;;;21.99;26.10
64614;BME280;51025;37.772;-122.432;2023-06-05T02:05:02;100390.32;;;21.96;26.50
64614;BME280;51025;37.772;-122.432;2023-06-05T02:07:30;100392.45;;;21.80;26.31
64614;BME280;51025;37.772;-122.432;2023-06-05T02:09:59;100390.12;;;22.01;26.44
64614;BME280;51025;37.772;-122.432;2023-06-05T02:12:27;100392.36;;;21.83;26.22
64614;BME280;51025;37.772;-122.432;2023-06-05T02:14:56;100392.93;;;21.45;26.48
64614;BME280;51025;37.772;-122.432;2023-06-05T02:17:24;100400.80;;;21.25;26.42
64614;BME280;51025;37.772;-122.432;2023-06-05T02:19:52;100397.22;;;21.99;26.44
64614;BME280;51025;37.772;-122.432;2023-06-05T02:22:20;100386.97;;;22.09;26.54
64614;BME280;51025;37.772;-122.432;2023-06-05T02:24:48;100393.75;;;21.83;26.78
64614;BME280;51025;37.772;-122.432;2023-06-05T02:27:16;100392.01;;;21.77;26.90
64614;BME280;51025;37.772;-122.432;2023-06-05T02:29:44;100390.12;;;22.01;27.43
64614;BME280;51025;37.772;-122.432;2023-06-05T02:32:13;100396.91;;;21.89;27.76
64614;BME280;51025;37.772;-122.432;2023-06-05T02:34:42;100397.22;;;21.61;27.63
64614;BME280;51025;37.772;-122.432;2023-06-05T02:37:10;100394.39;;;21.75;27.82
64614;BME280;51025;37.772;-122.432;2023-06-05T02:39:38;100390.33;;;21.75;27.88
64614;BME280;51025;37.772;-122.432;2023-06-05T02:42:06;100395.46;;;22.00;27.17
64614;BME280;51025;37.772;-122.432;2023-06-05T02:44:35;100388.44;;;21.85;27.15
64614;BME280;51025;37.772;-122.432;2023-06-05T02:47:03;100392.92;;;21.61;27.35
64614;BME280;51025;37.772;-122.432;2023-06-05T02:49:31;100391.81;;;21.73;27.40
64614;BME280;51025;37.772;-122.432;2023-06-05T02:52:00;100398.08;;;22.03;27.74
64614;BME280;51025;37.772;-122.432;2023-06-05T02:54:28;100408.61;;;20.93;28.63
64614;BME280;51025;37.772;-122.432;2023-06-05T02:56:56;100401.26;;;20.11;28.60
64614;BME280;51025;37.772;-122.432;2023-06-05T02:59:24;100408.98;;;20.67;28.79
64614;BME280;51025;37.772;-122.432;2023-06-05T03:01:52;100406.40;;;21.23;28.66
64614;BME280;51025;37.772;-122.432;2023-06-05T03:04:21;100415.24;;;20.98;28.44
64614;BME280;51025;37.772;-122.432;2023-06-05T03:06:49;100404.72;;;20.90;28.47
64614;BME280;51025;37.772;-122.432;2023-06-05T03:09:18;100417.11;;;21.59;28.35
64614;BME280;51025;37.772;-122.432;2023-06-05T03:11:46;100415.14;;;21.31;28.51
64614;BME280;51025;37.772;-122.432;2023-06-05T03:14:15;100419.19;;;20.47;28.76
64614;BME280;51025;37.772;-122.432;2023-06-05T03:16:43;100418.23;;;20.64;28.40
64614;BME280;51025;37.772;-122.432;2023-06-05T03:19:12;100421.54;;;20.83;28.31
64614;BME280;51025;37.772;-122.432;2023-06-05T03:21:41;100425.59;;;20.64;28.52
64614;BME280;51025;37.772;-122.432;2023-06-05T03:24:10;100422.06;;;21.07;28.25
64614;BME280;51025;37.772;-122.432;2023-06-05T03:26:39;100417.27;;;20.96;28.22
64614;BME280;51025;37.772;-122.432;2023-06-05T03:29:07;100422.87;;;21.17;27.96
64614;BME280;51025;37.772;-122.432;2023-06-05T03:31:36;100422.41;;;21.04;28.10
64614;BME280;51025;37.772;-122.432;2023-06-05T03:34:04;100428.39;;;20.98;28.64
64614;BME280;51025;37.772;-122.432;2023-06-05T03:36:32;100420.19;;;20.76;28.46
64614;BME280;51025;37.772;-122.432;2023-06-05T03:39:00;100421.88;;;20.63;28.46
64614;BME280;51025;37.772;-122.432;2023-06-05T03:41:28;100417.64;;;20.82;28.16
64614;BME280;51025;37.772;-122.432;2023-06-05T03:43:57;100419.27;;;20.50;28.36
64614;BME280;51025;37.772;-122.432;2023-06-05T03:46:25;100419.79;;;20.57;28.01
64614;BME280;51025;37.772;-122.432;2023-06-05T03:48:53;100420.75;;;20.52;28.38
64614;BME280;51025;37.772;-122.432;2023-06-05T03:51:21;100420.21;;;20.08;28.76
64614;BME280;51025;37.772;-122.432;2023-06-05T03:53:49;100422.63;;;21.11;28.20
64614;BME280;51025;37.772;-122.432;2023-06-05T03:56:17;100417.77;;;20.39;28.52
64614;BME280;51025;37.772;-122.432;2023-06-05T03:58:45;100417.35;;;20.76;28.50
64614;BME280;51025;37.772;-122.432;2023-06-05T04:01:13;100418.85;;;20.99;28.04
64614;BME280;51025;37.772;-122.432;2023-06-05T04:03:42;100420.32;;;21.06;28.35
64614;BME280;51025;37.772;-122.432;2023-06-05T04:06:10;100424.60;;;20.06;28.53
64614;BME280;51025;37.772;-122.432;2023-06-05T04:08:38;100428.65;;;21.07;28.18
64614;BME280;51025;37.772;-122.432;2023-06-05T04:11:06;100425.13;;;20.72;28.15
64614;BME280;51025;37.772;-122.432;2023-06-05T04:13:34;100429.26;;;20.85;28.30
64614;BME280;51025;37.772;-122.432;2023-06-05T04:16:03;100427.57;;;20.28;28.35
64614;BME280;51025;37.772;-122.432;2023-06-05T04:18:31;100436.54;;;20.49;28.19
64614;BME280;51025;37.772;-122.432;2023-06-05T04:21:00;100432.59;;;20.74;28.17
64614;BME280;51025;37.772;-122.432;2023-06-05T04:23:28;100440.36;;;19.98;28.83
64614;BME280;51025;37.772;-122.432;2023-06-05T04:25:56;100446.69;;;20.51;28.27
64614;BME280;51025;37.772;-122.432;2023-06-05T04:28:25;100452.87;;;20.33;28.37
64614;BME280;51025;37.772;-122.432;2023-06-05T04:30:54;100451.83;;;20.39;28.31
64614;BME280;51025;37.772;-122.432;2023-06-05T04:33:23;100453.73;;;19.56;28.40
64614;BME280;51025;37.772;-122.432;2023-06-05T04:35:51;100452.60;;;20.41;28.21
64614;BME280;51025;37.772;-122.432;2023-06-05T04:38:20;100447.25;;;20.62;28.50
64614;BME280;51025;37.772;-122.432;2023-06-05T04:40:48;100453.97;;;20.73;28.11
64614;BME280;51025;37.772;-122.432;2023-06-05T04:43:16;100460.00;;;20.63;28.22
64614;BME280;51025;37.772;-122.432;2023-06-05T04:45:44;100460.83;;;20.75;27.87
64614;BME280;51025;37.772;-122.432;2023-06-05T04:48:12;100468.79;;;21.29;27.76
64614;BME280;51025;37.772;-122.432;2023-06-05T04:50:41;100466.57;;;21.18;27.59
64614;BME280;51025;37.772;-122.432;2023-06-05T04:53:09;100466.85;;;21.52;27.58
64614;BME280;51025;37.772;-122.432;2023-06-05T04:55:37;100472.46;;;21.42;27.38
64614;BME280;51025;37.772;-122.432;2023-06-05T04:58:05;100476.04;;;21.35;27.39
64614;BME280;51025;37.772;-122.432;2023-06-05T05:00:34;100477.47;;;21.97;27.21
64614;BME280;51025;37.772;-122.432;2023-06-05T05:03:02;100486.66;;;21.69;27.16
64614;BME280;51025;37.772;-122.432;2023-06-05T05:05:31;100487.85;;;21.17;27.24
64614;BME280;51025;37.772;-122.432;2023-06-05T05:07:59;100488.91;;;21.60;27.21
64614;BME280;51025;37.772;-122.432;2023-06-05T05:10:28;100489.44;;;21.00;27.41
64614;BME280;51025;37.772;-122.432;2023-06-05T05:12:56;100491.56;;;20.90;27.52
64614;BME280;51025;37.772;-122.432;2023-06-05T05:15:24;100486.30;;;21.33;27.17
64614;BME280;51025;37.772;-122.432;2023-06-05T05:17:52;100483.51;;;21.13;27.39
64614;BME280;51025;37.772;-122.432;2023-06-05T05:20:20;100484.35;;;21.91;27.04
64614;BME280;51025;37.772;-122.432;2023-06-05T05:22:48;100480.87;;;21.52;27.08
64614;BME280;51025;37.772;-122.432;2023-06-05T05:25:16;100479.41;;;21.77;26.91
64614;BME280;51025;37.772;-122.432;2023-06-05T05:27:45;100470.90;;;21.77;26.85
64614;BME280;51025;37.772;-122.432;2023-06-05T05:30:14;100465.37;;;21.94;26.71
64614;BME280;51025;37.772;-122.432;2023-06-05T05:32:42;100464.46;;;21.83;26.80
64614;BME280;51025;37.772;-122.432;2023-06-05T05:35:11;100464.15;;;22.14;26.87
64614;BME280;51025;37.772;-122.432;2023-06-05T05:37:39;100465.79;;;21.71;26.98
64614;BME280;51025;37.772;-122.432;2023-06-05T05:40:08;100469.30;;;21.42;27.24
64614;BME280;51025;37.772;-122.432;2023-06-05T05:42:36;100470.02;;;21.53;27.21
64614;BME280;51025;37.772;-122.432;2023-06-05T05:45:05;100468.58;;;21.60;27.23
64614;BME280;51025;37.772;-122.432;2023-06-05T05:47:33;100468.28;;;21.63;27.26
64614;BME280;51025;37.772;-122.432;2023-06-05T05:50:02;100462.42;;;22.00;27.28
64614;BME280;51025;37.772;-122.432;2023-06-05T05:52:30;100459.50;;;21.72;27.25
64614;BME280;51025;37.772;-122.432;2023-06-05T05:54:59;100451.13;;;22.09;27.19
64614;BME280;51025;37.772;-122.432;2023-06-05T05:57:32;100444.04;;;22.50;27.19
64614;BME280;51025;37.772;-122.432;2023-06-05T06:00:00;100436.51;;;22.10;27.19
64614;BME280;51025;37.772;-122.432;2023-06-05T06:02:28;100432.74;;;21.76;27.18
64614;BME280;51025;37.772;-122.432;2023-06-05T06:04:56;100434.67;;;21.83;27.15
64614;BME280;51025;37.772;-122.432;2023-06-05T06:07:24;100434.73;;;21.32;27.23
64614;BME280;51025;37.772;-122.432;2023-06-05T06:09:52;100434.66;;;21.78;27.22
64614;BME280;51025;37.772;-122.432;2023-06-05T06:12:20;100436.93;;;21.59;27.30
64614;BME280;51025;37.772;-122.432;2023-06-05T06:14:49;100427.66;;;21.75;27.23
64614;BME280;51025;37.772;-122.432;2023-06-05T06:17:17;100430.45;;;21.60;27.31
64614;BME280;51025;37.772;-122.432;2023-06-05T06:19:45;100430.13;;;21.84;27.09
64614;BME280;51025;37.772;-122.432;2023-06-05T06:22:14;100424.51;;;21.58;27.24
64614;BME280;51025;37.772;-122.432;2023-06-05T06:24:43;100425.66;;;22.20;27.05
64614;BME280;51025;37.772;-122.432;2023-06-05T06:27:11;100425.00;;;21.72;27.12
64614;BME280;51025;37.772;-122.432;2023-06-05T06:29:47;100422.55;;;21.72;27.09
64614;BME280;51025;37.772;-122.432;2023-06-05T06:32:17;100424.41;;;21.73;27.06
64614;BME280;51025;37.772;-122.432;2023-06-05T06:34:45;100428.57;;;21.75;27.04
64614;BME280;51025;37.772;-122.432;2023-06-05T06:37:14;100433.61;;;21.82;27.17
64614;BME280;51025;37.772;-122.432;2023-06-05T06:39:43;100432.95;;;21.26;27.39
64614;BME280;51025;37.772;-122.432;2023-06-05T06:42:11;100431.48;;;21.76;26.98
64614;BME280;51025;37.772;-122.432;2023-06-05T06:44:40;100438.48;;;21.96;27.13
64614;BME280;51025;37.772;-122.432;2023-06-05T06:47:08;100435.54;;;21.24;27.40
64614;BME280;51025;37.772;-122.432;2023-06-05T06:49:37;100437.68;;;22.14;27.16
64614;BME280;51025;37.772;-122.432;2023-06-05T06:52:05;100441.37;;;22.10;26.93
64614;BME280;51025;37.772;-122.432;2023-06-05T06:54:34;100444.00;;;21.59;27.08
64614;BME280;51025;37.772;-122.432;2023-06-05T06:57:02;100449.29;;;21.17;27.42
64614;BME280;51025;37.772;-122.432;2023-06-05T06:59:30;100451.56;;;22.00;27.06
64614;BME280;51025;37.772;-122.432;2023-06-05T07:02:16;100451.15;;;21.48;27.10
64614;BME280;51025;37.772;-122.432;2023-06-05T07:04:45;100451.48;;;22.13;26.92
64614;BME280;51025;37.772;-122.432;2023-06-05T07:07:15;100447.74;;;21.50;27.13
64614;BME280;51025;37.772;-122.432;2023-06-05T07:09:45;100441.65;;;21.59;27.05
64614;BME280;51025;37.772;-122.432;2023-06-05T07:12:14;100441.29;;;21.87;27.10
64614;BME280;51025;37.772;-122.432;2023-06-05T07:14:43;100441.76;;;21.60;26.97
64614;BME280;51025;37.772;-122.432;2023-06-05T07:17:11;100442.11;;;21.47;27.39
64614;BME280;51025;37.772;-122.432;2023-06-05T07:19:40;100437.27;;;21.02;27.44
64614;BME280;51025;37.772;-122.432;2023-06-05T07:22:08;100435.16;;;20.90;27.56
64614;BME280;51025;37.772;-122.432;2023-06-05T07:24:37;100430.25;;;21.83;27.06
64614;BME280;51025;37.772;-122.432;2023-06-05T07:27:06;100429.51;;;21.83;27.32
64614;BME280;51025;37.772;-122.432;2023-06-05T07:29:34;100427.70;;;21.78;27.35
64614;BME280;51025;37.772;-122.432;2023-06-05T07:32:04;100424.92;;;21.83;27.05
64614;BME280;51025;37.772;-122.432;2023-06-05T07:34:33;100429.97;;;21.61;26.93
64614;BME280;51025;37.772;-122.432;2023-06-05T07:37:01;100435.51;;;21.81;27.05
64614;BME280;51025;37.772;-122.432;2023-06-05T07:39:30;100435.08;;;20.96;27.41
64614;BME280;51025;37.772;-122.432;2023-06-05T07:41:58;100432.70;;;21.17;27.58
64614;BME280;51025;37.772;-122.432;2023-06-05T07:44:26;100431.54;;;20.83;27.20
64614;BME280;51025;37.772;-122.432;2023-06-05T07:46:54;100432.21;;;20.85;27.50
64614;BME280;51025;37.772;-122.432;2023-06-05T07:49:23;100437.09;;;20.39;27.51
64614;BME280;51025;37.772;-122.432;2023-06-05T07:51:52;100441.70;;;21.17;27.48
64614;BME280;51025;37.772;-122.432;2023-06-05T07:54:20;100440.08;;;21.12;27.22
64614;BME280;51025;37.772;-122.432;2023-06-05T07:56:49;100434.11;;;21.58;27.41
64614;BME280;51025;37.772;-122.432;2023-06-05T07:59:17;100428.09;;;21.03;27.61
64614;BME280;51025;37.772;-122.432;2023-06-05T08:01:46;100420.20;;;21.27;27.66
64614;BME280;51025;37.772;-122.432;2023-06-05T08:04:14;100417.69;;;21.20;27.19
64614;BME280;51025;37.772;-122.432;2023-06-05T08:06:43;100413.96;;;21.31;27.34
64614;BME280;51025;37.772;-122.432;2023-06-05T08:09:11;100410.88;;;21.38;27.57
64614;BME280;51025;37.772;-122.432;2023-06-05T08:11:39;100405.70;;;21.27;27.37
64614;BME280;51025;37.772;-122.432;2023-06-05T08:14:07;100401.45;;;20.61;27.60
64614;BME280;51025;37.772;-122.432;2023-06-05T08:16:36;100397.05;;;20.80;27.77
64614;BME280;51025;37.772;-122.432;2023-06-05T08:19:04;100399.48;;;20.67;27.62
64614;BME280;51025;37.772;-122.432;2023-06-05T08:21:33;100401.01;;;20.60;27.65
64614;BME280;51025;37.772;-122.432;2023-06-05T08:24:01;100399.60;;;20.84;27.71
64614;BME280;51025;37.772;-122.432;2023-06-05T08:26:29;100395.80;;;20.83;27.71
64614;BME280;51025;37.772;-122.432;2023-06-05T08:29:00;100387.87;;;20.74;27.76
64614;BME280;51025;37.772;-122.432;2023-06-05T08:31:28;100381.08;;;20.64;27.53
64614;BME280;51025;37.772;-122.432;2023-06-05T08:33:56;100373.18;;;20.78;27.74
64614;BME280;51025;37.772;-122.432;2023-06-05T08:36:24;100374.59;;;20.34;27.43
64614;BME280;51025;37.772;-122.432;2023-06-05T08:38:52;100377.38;;;21.33;27.28
64614;BME280;51025;37.772;-122.432;2023-06-05T08:41:21;100376.06;;;21.13;27.49
64614;BME280;51025;37.772;-122.432;2023-06-05T08:43:50;100368.04;;;21.36;27.27
64614;BME280;51025;37.772;-122.432;2023-06-05T08:46:19;100368.69;;;20.80;27.65
64614;BME280;51025;37.772;-122.432;2023-06-05T08:48:48;100364.09;;;21.00;27.80
64614;BME280;51025;37.772;-122.432;2023-06-05T08:51:18;100355.20;;;20.77;27.45
64614;BME280;51025;37.772;-122.432;2023-06-05T08:53:52;100354.54;;;21.89;27.10
64614;BME280;51025;37.772;-122.432;2023-06-05T08:56:22;100349.04;;;21.33;26.91
64614;BME280;51025;37.772;-122.432;2023-06-05T08:58:51;100350.23;;;20.97;27.15
64614;BME280;51025;37.772;-122.432;2023-06-05T09:01:21;100345.21;;;22.07;26.87
64614;BME280;51025;37.772;-122.432;2023-06-05T09:03:50;100350.95;;;21.86;27.07
64614;BME280;51025;37.772;-122.432;2023-06-05T09:06:18;100357.68;;;21.37;27.42
64614;BME280;51025;37.772;-122.432;2023-06-05T09:08:47;100367.26;;;21.43;27.45
64614;BME280;51025;37.772;-122.432;2023-06-05T09:11:24;100371.74;;;21.07;27.08
64614;BME280;51025;37.772;-122.432;2023-06-05T09:13:53;100384.39;;;20.62;27.47
64614;BME280;51025;37.772;-122.432;2023-06-05T09:16:31;100393.94;;;20.36;27.63
64614;BME280;51025;37.772;-122.432;2023-06-05T09:19:00;100399.14;;;20.91;27.52
64614;BME280;51025;37.772;-122.432;2023-06-05T09:21:30;100394.15;;;20.98;27.46
64614;BME280;51025;37.772;-122.432;2023-06-05T09:24:30;100390.13;;;20.86;27.25
64614;BME280;51025;37.772;-122.432;2023-06-05T09:27:00;100395.12;;;21.46;27.22
64614;BME280;51025;37.772;-122.432;2023-06-05T09:29:30;100392.76;;;20.70;27.35
64614;BME280;51025;37.772;-122.432;2023-06-05T09:31:59;100393.94;;;21.00;27.36
64614;BME280;51025;37.772;-122.432;2023-06-05T09:34:29;100396.47;;;20.55;27.40
64614;BME280;51025;37.772;-122.432;2023-06-05T09:36:58;100396.50;;;20.42;27.50
64614;BME280;51025;37.772;-122.432;2023-06-05T09:39:28;100395.82;;;20.28;27.66
64614;BME280;51025;37.772;-122.432;2023-06-05T09:41:57;100395.83;;;20.82;27.74
64614;BME280;51025;37.772;-122.432;2023-06-05T09:44:27;100394.60;;;20.45;27.53
64614;BME280;51025;37.772;-122.432;2023-06-05T09:46:58;100395.79;;;20.26;27.60
64614;BME280;51025;37.772;-122.432;2023-06-05T09:49:28;100387.81;;;20.01;27.82
64614;BME280;51025;37.772;-122.432;2023-06-05T09:51:58;100386.40;;;20.73;27.76
64614;BME280;51025;37.772;-122.432;2023-06-05T09:54:28;100386.02;;;20.00;27.87
64614;BME280;51025;37.772;-122.432;2023-06-05T09:57:00;100385.19;;;21.19;27.42
64614;BME280;51025;37.772;-122.432;2023-06-05T09:59:30;100383.38;;;20.76;27.76
64614;BME280;51025;37.772;-122.432;2023-06-05T10:02:01;100383.48;;;20.74;27.70
64614;BME280;51025;37.772;-122.432;2023-06-05T10:04:33;100382.14;;;19.97;27.78
64614;BME280;51025;37.772;-122.432;2023-06-05T10:07:05;100376.63;;;20.50;27.87
64614;BME280;51025;37.772;-122.432;2023-06-05T10:09:33;100381.68;;;20.40;27.97
64614;BME280;51025;37.772;-122.432;2023-06-05T10:12:02;100382.52;;;20.72;27.69
64614;BME280;51025;37.772;-122.432;2023-06-05T10:14:31;100380.09;;;20.49;27.87
64614;BME280;51025;37.772;-122.432;2023-06-05T10:16:59;100377.04;;;20.44;27.96
64614;BME280;51025;37.772;-122.432;2023-06-05T10:19:30;100376.59;;;20.06;27.89
64614;BME280;51025;37.772;-122.432;2023-06-05T10:21:59;100379.11;;;20.51;27.85
64614;BME280;51025;37.772;-122.432;2023-06-05T10:24:33;100378.78;;;20.02;27.91
64614;BME280;51025;37.772;-122.432;2023-06-05T10:27:19;100377.62;;;20.38;27.93
64614;BME280;51025;37.772;-122.432;2023-06-05T10:30:18;100378.84;;;20.42;27.86
64614;BME280;51025;37.772;-122.432;2023-06-05T10:33:01;100381.74;;;20.64;27.67
64614;BME280;51025;37.772;-122.432;2023-06-05T10:35:43;100381.33;;;19.79;27.73
64614;BME280;51025;37.772;-122.432;2023-06-05T10:38:18;100381.79;;;21.09;27.65
64614;BME280;51025;37.772;-122.432;2023-06-05T10:40:51;100377.14;;;20.56;27.69
64614;BME280;51025;37.772;-122.432;2023-06-05T10:43:29;100378.31;;;20.05;27.83
64614;BME280;51025;37.772;-122.432;2023-06-05T10:45:58;100375.77;;;20.59;27.64
64614;BME280;51025;37.772;-122.432;2023-06-05T10:49:31;100372.15;;;20.66;27.61
64614;BME280;51025;37.772;-122.432;2023-06-05T10:52:00;100378.36;;;20.03;27.80
64614;BME280;51025;37.772;-122.432;2023-06-05T10:55:06;100380.24;;;20.03;27.76
64614;BME280;51025;37.772;-122.432;2023-06-05T10:58:04;100374.51;;;20.47;27.69
64614;BME280;51025;37.772;-122.432;2023-06-05T11:00:33;100372.81;;;20.96;27.32
64614;BME280;51025;37.772;-122.432;2023-06-05T11:03:02;100370.29;;;20.52;27.61
64614;BME280;51025;37.772;-122.432;2023-06-05T11:05:31;100369.76;;;20.27;27.83
64614;BME280;51025;37.772;-122.432;2023-06-05T11:08:17;100374.68;;;20.24;27.89
64614;BME280;51025;37.772;-122.432;2023-06-05T11:11:17;100378.62;;;20.50;28.01
64614;BME280;51025;37.772;-122.432;2023-06-05T11:13:55;100383.65;;;20.26;27.84
64614;BME280;51025;37.772;-122.432;2023-06-05T11:16:29;100381.23;;;19.50;27.82
64614;BME280;51025;37.772;-122.432;2023-06-05T11:20:03;100381.36;;;20.27;27.82
64614;BME280;51025;37.772;-122.432;2023-06-05T11:22:32;100382.92;;;20.39;27.67
64614;BME280;51025;37.772;-122.432;2023-06-05T11:25:32;100385.87;;;20.29;27.76
64614;BME280;51025;37.772;-122.432;2023-06-05T11:28:02;100389.01;;;20.23;27.78
64614;BME280;51025;37.772;-122.432;2023-06-05T11:30:31;100390.26;;;20.09;27.86
64614;BME280;51025;37.772;-122.432;2023-06-05T11:33:07;100387.78;;;20.02;27.95
64614;BME280;51025;37.772;-122.432;2023-06-05T11:35:35;100394.94;;;19.95;28.00
64614;BME280;51025;37.772;-122.432;2023-06-05T11:38:12;100398.96;;;19.96;28.00
64614;BME280;51025;37.772;-122.432;2023-06-05T11:40:42;100399.15;;;20.07;27.87
64614;BME280;51025;37.772;-122.432;2023-06-05T11:43:12;100394.83;;;20.26;27.77
64614;BME280;51025;37.772;-122.432;2023-06-05T11:45:42;100393.67;;;19.66;27.86
64614;BME280;51025;37.772;-122.432;2023-06-05T11:48:16;100396.21;;;20.33;28.04
64614;BME280;51025;37.772;-122.432;2023-06-05T11:50:53;100396.74;;;19.96;27.94
64614;BME280;51025;37.772;-122.432;2023-06-05T11:53:22;100399.64;;;19.89;27.97
64614;BME280;51025;37.772;-122.432;2023-06-05T11:55:50;100402.23;;;20.37;27.96
64614;BME280;51025;37.772;-122.432;2023-06-05T11:58:21;100397.15;;;19.96;27.91
64614;BME280;51025;37.772;-122.432;2023-06-05T12:00:50;100398.33;;;20.01;27.85
64614;BME280;51025;37.772;-122.432;2023-06-05T12:03:19;100394.74;;;20.37;27.88
64614;BME280;51025;37.772;-122.432;2023-06-05T12:05:48;100393.11;;;19.95;27.87
64614;BME280;51025;37.772;-122.432;2023-06-05T12:08:24;100393.07;;;19.94;27.88
64614;BME280;51025;37.772;-122.432;2023-06-05T12:10:53;100396.53;;;20.11;27.66
64614;BME280;51025;37.772;-122.432;2023-06-05T12:13:22;100395.57;;;19.98;27.82
64614;BME280;51025;37.772;-122.432;2023-06-05T12:15:58;100397.11;;;20.03;27.71
64614;BME280;51025;37.772;-122.432;2023-06-05T12:18:33;100395.53;;;19.51;27.82
64614;BME280;51025;37.772;-122.432;2023-06-05T12:21:02;100403.31;;;19.89;27.79
64614;BME280;51025;37.772;-122.432;2023-06-05T12:23:30;100399.45;;;19.89;27.85
64614;BME280;51025;37.772;-122.432;2023-06-05T12:26:00;100400.37;;;20.58;27.64
64614;BME280;51025;37.772;-122.432;2023-06-05T12:28:29;100399.98;;;20.42;27.74
64614;BME280;51025;37.772;-122.432;2023-06-05T12:30:57;100403.15;;;20.15;27.64
64614;BME280;51025;37.772;-122.432;2023-06-05T12:33:26;100401.96;;;19.45;27.94
64614;BME280;51025;37.772;-122.432;2023-06-05T12:36:06;100402.39;;;19.98;27.80
64614;BME280;51025;37.772;-122.432;2023-06-05T12:38:38;100410.50;;;19.83;27.90